sensor_id;sensor_type;location;lat;lon;timestamp;temperature;humidity
8888;DHT22;4480;52.370;9.748;2022-07-10T00:02:19;14.40;92.30
8888;DHT22;4480;52.370;9.748;2022-07-10T00:04:46;14.40;92.40
8888;DHT22;4480;52.370;9.748;2022-07-10T00:07:14;14.30;92.40
8888;DHT22;4480;52.370;9.748;2022-07-10T00:09:41;14.30;92.40
8888;DHT22;4480;52.370;9.748;2022-07-10T00:12:08;14.30;92.40
8888;DHT22;4480;52.370;9.748;2022-07-10T00:14:35;14.30;92.40
8888;DHT22;4480;52.370;9.748;2022-07-10T00:17:04;14.30;92.40
8888;DHT22;4480;52.370;9.748;2022-07-10T00:19:32;14.30;92.50
8888;DHT22;4480;52.370;9.748;2022-07-10T00:21:59;14.30;92.60
8888;DHT22;4480;52.370;9.748;2022-07-10T00:24:26;14.30;92.60
8888;DHT22;4480;52.370;9.748;2022-07-10T00:26:54;14.30;92.60
8888;DHT22;4480;52.370;9.748;2022-07-10T00:29:21;14.30;92.60
8888;DHT22;4480;52.370;9.748;2022-07-10T00:31:48;14.30;92.70
8888;DHT22;4480;52.370;9.748;2022-07-10T00:34:17;14.30;92.70
8888;DHT22;4480;52.370;9.748;2022-07-10T00:36:44;14.30;92.90
8888;DHT22;4480;52.370;9.748;2022-07-10T00:39:12;14.30;93.10
8888;DHT22;4480;52.370;9.748;2022-07-10T00:41:40;14.20;93.00
8888;DHT22;4480;52.370;9.748;2022-07-10T00:44:07;14.20;93.10
8888;DHT22;4480;52.370;9.748;2022-07-10T00:46:34;14.20;93.10
8888;DHT22;4480;52.370;9.748;2022-07-10T00:49:02;14.10;93.10
8888;DHT22;4480;52.370;9.748;2022-07-10T00:51:31;14.10;93.20
8888;DHT22;4480;52.370;9.748;2022-07-10T00:53:59;14.10;93.30
8888;DHT22;4480;52.370;9.748;2022-07-10T00:56:28;14.10;93.30
8888;DHT22;4480;52.370;9.748;2022-07-10T00:58:55;14.10;93.40
8888;DHT22;4480;52.370;9.748;2022-07-10T01:01:23;14.10;93.50
8888;DHT22;4480;52.370;9.748;2022-07-10T01:03:51;14.00;93.60
8888;DHT22;4480;52.370;9.748;2022-07-10T01:06:18;14.00;93.60
8888;DHT22;4480;52.370;9.748;2022-07-10T01:08:47;14.00;93.80
8888;DHT22;4480;52.370;9.748;2022-07-10T01:11:15;14.00;93.90
8888;DHT22;4480;52.370;9.748;2022-07-10T01:13:42;14.00;93.90
8888;DHT22;4480;52.370;9.748;2022-07-10T01:16:10;14.00;94.00
8888;DHT22;4480;52.370;9.748;2022-07-10T01:18:37;14.00;94.00
8888;DHT22;4480;52.370;9.748;2022-07-10T01:21:06;14.00;94.00
8888;DHT22;4480;52.370;9.748;2022-07-10T01:23:49;14.00;94.10
8888;DHT22;4480;52.370;9.748;2022-07-10T01:26:17;13.90;94.00
8888;DHT22;4480;52.370;9.748;2022-07-10T01:28:48;14.00;94.10
8888;DHT22;4480;52.370;9.748;2022-07-10T01:31:16;13.90;94.00
8888;DHT22;4480;52.370;9.748;2022-07-10T01:33:44;13.90;94.10
8888;DHT22;4480;52.370;9.748;2022-07-10T01:36:13;13.90;94.20
8888;DHT22;4480;52.370;9.748;2022-07-10T01:38:41;13.90;94.20
8888;DHT22;4480;52.370;9.748;2022-07-10T01:41:08;13.90;94.20
8888;DHT22;4480;52.370;9.748;2022-07-10T01:43:35;13.90;94.20
8888;DHT22;4480;52.370;9.748;2022-07-10T01:46:03;13.90;94.30
8888;DHT22;4480;52.370;9.748;2022-07-10T01:48:30;13.90;94.40
8888;DHT22;4480;52.370;9.748;2022-07-10T01:50:58;13.80;94.40
8888;DHT22;4480;52.370;9.748;2022-07-10T01:53:26;13.80;94.50
8888;DHT22;4480;52.370;9.748;2022-07-10T01:55:54;13.80;94.50
8888;DHT22;4480;52.370;9.748;2022-07-10T01:58:22;13.80;94.50
8888;DHT22;4480;52.370;9.748;2022-07-10T02:00:49;13.80;94.80
8888;DHT22;4480;52.370;9.748;2022-07-10T02:03:16;13.80;94.90
8888;DHT22;4480;52.370;9.748;2022-07-10T02:06:01;13.80;95.10
8888;DHT22;4480;52.370;9.748;2022-07-10T02:08:30;13.80;95.40
8888;DHT22;4480;52.370;9.748;2022-07-10T02:10:57;13.80;95.60
8888;DHT22;4480;52.370;9.748;2022-07-10T02:13:25;13.80;95.80
8888;DHT22;4480;52.370;9.748;2022-07-10T02:15:53;13.80;95.80
8888;DHT22;4480;52.370;9.748;2022-07-10T02:18:21;13.80;95.90
8888;DHT22;4480;52.370;9.748;2022-07-10T02:20:50;13.70;96.00
8888;DHT22;4480;52.370;9.748;2022-07-10T02:23:18;13.70;96.10
8888;DHT22;4480;52.370;9.748;2022-07-10T02:25:46;13.70;96.10
8888;DHT22;4480;52.370;9.748;2022-07-10T02:28:14;13.70;96.20
8888;DHT22;4480;52.370;9.748;2022-07-10T02:30:42;13.70;96.30
8888;DHT22;4480;52.370;9.748;2022-07-10T02:33:09;13.70;96.30
8888;DHT22;4480;52.370;9.748;2022-07-10T02:35:37;13.70;96.40
8888;DHT22;4480;52.370;9.748;2022-07-10T02:38:04;13.70;96.40
8888;DHT22;4480;52.370;9.748;2022-07-10T02:40:31;13.70;96.50
8888;DHT22;4480;52.370;9.748;2022-07-10T02:43:00;13.70;96.50
8888;DHT22;4480;52.370;9.748;2022-07-10T02:45:27;13.70;96.50
8888;DHT22;4480;52.370;9.748;2022-07-10T02:47:54;13.70;96.50
8888;DHT22;4480;52.370;9.748;2022-07-10T02:50:22;13.60;96.60
8888;DHT22;4480;52.370;9.748;2022-07-10T02:52:49;13.60;96.70
8888;DHT22;4480;52.370;9.748;2022-07-10T02:55:17;13.60;96.90
8888;DHT22;4480;52.370;9.748;2022-07-10T02:57:44;13.60;96.90
8888;DHT22;4480;52.370;9.748;2022-07-10T03:00:13;13.60;97.20
8888;DHT22;4480;52.370;9.748;2022-07-10T03:02:41;13.60;97.40
8888;DHT22;4480;52.370;9.748;2022-07-10T03:05:09;13.60;97.70
8888;DHT22;4480;52.370;9.748;2022-07-10T03:07:36;13.50;97.60
8888;DHT22;4480;52.370;9.748;2022-07-10T03:10:04;13.50;97.90
8888;DHT22;4480;52.370;9.748;2022-07-10T03:12:31;13.50;98.00
8888;DHT22;4480;52.370;9.748;2022-07-10T03:14:59;13.50;98.10
8888;DHT22;4480;52.370;9.748;2022-07-10T03:17:27;13.50;98.20
8888;DHT22;4480;52.370;9.748;2022-07-10T03:19:55;13.50;98.40
8888;DHT22;4480;52.370;9.748;2022-07-10T03:22:22;13.50;98.50
8888;DHT22;4480;52.370;9.748;2022-07-10T03:24:49;13.50;98.60
8888;DHT22;4480;52.370;9.748;2022-07-10T03:27:16;13.50;98.80
8888;DHT22;4480;52.370;9.748;2022-07-10T03:29:43;13.60;98.70
8888;DHT22;4480;52.370;9.748;2022-07-10T03:32:12;13.60;98.80
8888;DHT22;4480;52.370;9.748;2022-07-10T03:34:40;13.60;98.80
8888;DHT22;4480;52.370;9.748;2022-07-10T03:37:08;13.60;98.80
8888;DHT22;4480;52.370;9.748;2022-07-10T03:39:35;13.60;98.90
8888;DHT22;4480;52.370;9.748;2022-07-10T03:42:02;13.60;99.00
8888;DHT22;4480;52.370;9.748;2022-07-10T03:44:30;13.60;99.10
8888;DHT22;4480;52.370;9.748;2022-07-10T03:46:57;13.60;99.10
8888;DHT22;4480;52.370;9.748;2022-07-10T03:49:24;13.60;99.10
8888;DHT22;4480;52.370;9.748;2022-07-10T03:51:53;13.60;99.20
8888;DHT22;4480;52.370;9.748;2022-07-10T03:54:20;13.60;99.30
8888;DHT22;4480;52.370;9.748;2022-07-10T03:56:48;13.60;99.30
8888;DHT22;4480;52.370;9.748;2022-07-10T03:59:32;13.60;99.30
8888;DHT22;4480;52.370;9.748;2022-07-10T04:02:00;13.60;99.30
8888;DHT22;4480;52.370;9.748;2022-07-10T04:04:27;13.70;99.40
8888;DHT22;4480;52.370;9.748;2022-07-10T04:09:59;13.70;99.30
8888;DHT22;4480;52.370;9.748;2022-07-10T04:12:26;13.70;99.50
8888;DHT22;4480;52.370;9.748;2022-07-10T04:14:53;13.70;99.50
8888;DHT22;4480;52.370;9.748;2022-07-10T04:17:22;13.70;99.50
8888;DHT22;4480;52.370;9.748;2022-07-10T04:19:49;13.70;99.50
8888;DHT22;4480;52.370;9.748;2022-07-10T04:22:16;13.70;99.50
8888;DHT22;4480;52.370;9.748;2022-07-10T04:24:43;13.70;99.50
8888;DHT22;4480;52.370;9.748;2022-07-10T04:27:12;13.80;99.50
8888;DHT22;4480;52.370;9.748;2022-07-10T04:29:41;13.80;99.50
8888;DHT22;4480;52.370;9.748;2022-07-10T04:32:08;13.80;99.40
8888;DHT22;4480;52.370;9.748;2022-07-10T04:34:35;13.80;99.50
8888;DHT22;4480;52.370;9.748;2022-07-10T04:37:03;13.80;99.40
8888;DHT22;4480;52.370;9.748;2022-07-10T04:39:30;13.90;99.40
8888;DHT22;4480;52.370;9.748;2022-07-10T04:41:58;13.90;99.40
8888;DHT22;4480;52.370;9.748;2022-07-10T04:44:26;13.90;99.40
8888;DHT22;4480;52.370;9.748;2022-07-10T04:46:54;13.80;99.60
8888;DHT22;4480;52.370;9.748;2022-07-10T04:49:21;13.90;99.30
8888;DHT22;4480;52.370;9.748;2022-07-10T04:51:49;13.90;99.30
8888;DHT22;4480;52.370;9.748;2022-07-10T04:54:16;13.90;99.20
8888;DHT22;4480;52.370;9.748;2022-07-10T04:56:43;13.90;99.00
8888;DHT22;4480;52.370;9.748;2022-07-10T04:59:11;13.90;98.90
8888;DHT22;4480;52.370;9.748;2022-07-10T05:01:40;14.00;98.80
8888;DHT22;4480;52.370;9.748;2022-07-10T05:04:07;14.00;98.70
8888;DHT22;4480;52.370;9.748;2022-07-10T05:06:35;14.00;98.50
8888;DHT22;4480;52.370;9.748;2022-07-10T05:09:03;14.00;98.40
8888;DHT22;4480;52.370;9.748;2022-07-10T05:11:30;14.10;98.30
8888;DHT22;4480;52.370;9.748;2022-07-10T05:13:58;14.10;98.30
8888;DHT22;4480;52.370;9.748;2022-07-10T05:16:25;14.10;98.10
8888;DHT22;4480;52.370;9.748;2022-07-10T05:18:54;14.20;98.00
8888;DHT22;4480;52.370;9.748;2022-07-10T05:21:21;14.20;97.80
8888;DHT22;4480;52.370;9.748;2022-07-10T05:23:48;14.20;97.70
8888;DHT22;4480;52.370;9.748;2022-07-10T05:26:16;14.20;97.70
8888;DHT22;4480;52.370;9.748;2022-07-10T05:28:43;14.20;97.70
8888;DHT22;4480;52.370;9.748;2022-07-10T05:31:10;14.20;97.80
8888;DHT22;4480;52.370;9.748;2022-07-10T05:33:38;14.20;97.70
8888;DHT22;4480;52.370;9.748;2022-07-10T05:36:08;14.20;97.60
8888;DHT22;4480;52.370;9.748;2022-07-10T05:38:35;14.20;97.60
8888;DHT22;4480;52.370;9.748;2022-07-10T05:41:03;14.20;97.60
8888;DHT22;4480;52.370;9.748;2022-07-10T05:43:30;14.20;97.60
8888;DHT22;4480;52.370;9.748;2022-07-10T05:45:58;14.30;97.60
8888;DHT22;4480;52.370;9.748;2022-07-10T05:48:25;14.40;97.50
8888;DHT22;4480;52.370;9.748;2022-07-10T05:50:52;14.50;97.30
8888;DHT22;4480;52.370;9.748;2022-07-10T05:53:21;14.50;96.80
8888;DHT22;4480;52.370;9.748;2022-07-10T05:55:48;14.60;96.80
8888;DHT22;4480;52.370;9.748;2022-07-10T05:58:16;14.70;96.50
8888;DHT22;4480;52.370;9.748;2022-07-10T06:00:43;14.80;96.60
8888;DHT22;4480;52.370;9.748;2022-07-10T06:03:11;14.90;95.90
8888;DHT22;4480;52.370;9.748;2022-07-10T06:05:39;14.90;95.60
8888;DHT22;4480;52.370;9.748;2022-07-10T06:08:06;15.00;95.40
8888;DHT22;4480;52.370;9.748;2022-07-10T06:10:35;15.00;94.90
8888;DHT22;4480;52.370;9.748;2022-07-10T06:13:02;15.10;94.70
8888;DHT22;4480;52.370;9.748;2022-07-10T06:15:29;15.30;94.60
8888;DHT22;4480;52.370;9.748;2022-07-10T06:17:57;15.30;94.00
8888;DHT22;4480;52.370;9.748;2022-07-10T06:20:25;15.30;93.70
8888;DHT22;4480;52.370;9.748;2022-07-10T06:22:52;15.40;93.80
8888;DHT22;4480;52.370;9.748;2022-07-10T06:25:19;15.40;93.60
8888;DHT22;4480;52.370;9.748;2022-07-10T06:27:48;15.50;93.30
8888;DHT22;4480;52.370;9.748;2022-07-10T06:30:16;15.60;93.40
8888;DHT22;4480;52.370;9.748;2022-07-10T06:32:43;15.70;92.70
8888;DHT22;4480;52.370;9.748;2022-07-10T06:35:11;15.80;92.20
8888;DHT22;4480;52.370;9.748;2022-07-10T06:37:38;15.80;92.10
8888;DHT22;4480;52.370;9.748;2022-07-10T06:40:06;15.80;92.10
8888;DHT22;4480;52.370;9.748;2022-07-10T06:42:34;15.80;92.00
8888;DHT22;4480;52.370;9.748;2022-07-10T06:45:03;15.90;91.70
8888;DHT22;4480;52.370;9.748;2022-07-10T06:47:31;15.80;91.70
8888;DHT22;4480;52.370;9.748;2022-07-10T06:50:15;15.90;91.80
8888;DHT22;4480;52.370;9.748;2022-07-10T06:52:42;16.10;91.20
8888;DHT22;4480;52.370;9.748;2022-07-10T06:55:10;16.30;91.00
8888;DHT22;4480;52.370;9.748;2022-07-10T06:57:38;16.60;90.20
8888;DHT22;4480;52.370;9.748;2022-07-10T07:00:08;16.80;88.70
8888;DHT22;4480;52.370;9.748;2022-07-10T07:02:37;16.90;87.10
8888;DHT22;4480;52.370;9.748;2022-07-10T07:05:05;17.00;86.20
8888;DHT22;4480;52.370;9.748;2022-07-10T07:07:32;17.00;85.50
8888;DHT22;4480;52.370;9.748;2022-07-10T07:10:00;16.90;83.40
8888;DHT22;4480;52.370;9.748;2022-07-10T07:12:27;16.80;83.10
8888;DHT22;4480;52.370;9.748;2022-07-10T07:14:55;16.70;83.10
8888;DHT22;4480;52.370;9.748;2022-07-10T07:17:23;16.60;83.30
8888;DHT22;4480;52.370;9.748;2022-07-10T07:19:59;16.50;83.30
8888;DHT22;4480;52.370;9.748;2022-07-10T07:22:44;16.60;84.00
8888;DHT22;4480;52.370;9.748;2022-07-10T07:25:28;16.80;82.20
8888;DHT22;4480;52.370;9.748;2022-07-10T07:27:56;16.90;81.80
8888;DHT22;4480;52.370;9.748;2022-07-10T07:30:23;17.00;81.70
8888;DHT22;4480;52.370;9.748;2022-07-10T07:32:51;17.00;80.00
8888;DHT22;4480;52.370;9.748;2022-07-10T07:35:19;17.00;79.50
8888;DHT22;4480;52.370;9.748;2022-07-10T07:37:47;17.00;78.90
8888;DHT22;4480;52.370;9.748;2022-07-10T07:40:16;17.10;78.80
8888;DHT22;4480;52.370;9.748;2022-07-10T07:42:45;17.20;77.30
8888;DHT22;4480;52.370;9.748;2022-07-10T07:45:13;17.40;75.30
8888;DHT22;4480;52.370;9.748;2022-07-10T07:47:44;17.50;73.10
8888;DHT22;4480;52.370;9.748;2022-07-10T07:50:14;17.60;71.90
8888;DHT22;4480;52.370;9.748;2022-07-10T07:52:41;17.60;70.00
8888;DHT22;4480;52.370;9.748;2022-07-10T07:55:09;17.50;68.50
8888;DHT22;4480;52.370;9.748;2022-07-10T07:57:37;17.40;68.70
8888;DHT22;4480;52.370;9.748;2022-07-10T08:00:06;17.40;68.70
8888;DHT22;4480;52.370;9.748;2022-07-10T08:02:34;17.50;68.30
8888;DHT22;4480;52.370;9.748;2022-07-10T08:05:02;17.60;67.80
8888;DHT22;4480;52.370;9.748;2022-07-10T08:07:37;17.70;66.90
8888;DHT22;4480;52.370;9.748;2022-07-10T08:10:06;17.70;66.20
8888;DHT22;4480;52.370;9.748;2022-07-10T08:12:34;17.70;66.00
8888;DHT22;4480;52.370;9.748;2022-07-10T08:15:02;17.80;65.90
8888;DHT22;4480;52.370;9.748;2022-07-10T08:17:30;18.00;65.60
8888;DHT22;4480;52.370;9.748;2022-07-10T08:19:57;18.10;65.10
8888;DHT22;4480;52.370;9.748;2022-07-10T08:22:24;18.20;64.40
8888;DHT22;4480;52.370;9.748;2022-07-10T08:24:53;18.30;64.10
8888;DHT22;4480;52.370;9.748;2022-07-10T08:27:22;18.40;62.90
8888;DHT22;4480;52.370;9.748;2022-07-10T08:29:49;18.40;61.20
8888;DHT22;4480;52.370;9.748;2022-07-10T08:32:16;18.40;60.10
8888;DHT22;4480;52.370;9.748;2022-07-10T08:34:44;18.30;58.90
8888;DHT22;4480;52.370;9.748;2022-07-10T08:37:11;18.10;58.40
8888;DHT22;4480;52.370;9.748;2022-07-10T08:39:38;18.20;58.40
8888;DHT22;4480;52.370;9.748;2022-07-10T08:42:10;18.30;57.30
8888;DHT22;4480;52.370;9.748;2022-07-10T08:44:38;18.40;56.40
8888;DHT22;4480;52.370;9.748;2022-07-10T08:47:05;18.40;56.10
8888;DHT22;4480;52.370;9.748;2022-07-10T08:49:32;18.40;55.50
8888;DHT22;4480;52.370;9.748;2022-07-10T08:52:04;18.40;55.80
8888;DHT22;4480;52.370;9.748;2022-07-10T08:54:32;18.50;55.60
8888;DHT22;4480;52.370;9.748;2022-07-10T08:57:01;18.60;55.00
8888;DHT22;4480;52.370;9.748;2022-07-10T08:59:30;18.60;55.00
8888;DHT22;4480;52.370;9.748;2022-07-10T09:01:58;18.50;55.10
8888;DHT22;4480;52.370;9.748;2022-07-10T09:04:26;18.50;55.20
8888;DHT22;4480;52.370;9.748;2022-07-10T09:06:54;18.40;55.40
8888;DHT22;4480;52.370;9.748;2022-07-10T09:09:22;18.30;55.60
8888;DHT22;4480;52.370;9.748;2022-07-10T09:11:56;18.30;56.20
8888;DHT22;4480;52.370;9.748;2022-07-10T09:14:25;18.20;57.40
8888;DHT22;4480;52.370;9.748;2022-07-10T09:16:55;18.00;58.90
8888;DHT22;4480;52.370;9.748;2022-07-10T09:19:24;17.80;60.10
8888;DHT22;4480;52.370;9.748;2022-07-10T09:21:52;17.60;62.30
8888;DHT22;4480;52.370;9.748;2022-07-10T09:24:20;17.50;63.40
8888;DHT22;4480;52.370;9.748;2022-07-10T09:26:58;17.50;64.20
8888;DHT22;4480;52.370;9.748;2022-07-10T09:29:29;17.40;64.90
8888;DHT22;4480;52.370;9.748;2022-07-10T09:32:00;17.50;65.40
8888;DHT22;4480;52.370;9.748;2022-07-10T09:34:38;17.60;65.70
8888;DHT22;4480;52.370;9.748;2022-07-10T09:37:22;17.90;65.30
8888;DHT22;4480;52.370;9.748;2022-07-10T09:39:54;18.00;64.30
8888;DHT22;4480;52.370;9.748;2022-07-10T09:42:29;18.00;63.90
8888;DHT22;4480;52.370;9.748;2022-07-10T09:45:16;17.90;64.00
8888;DHT22;4480;52.370;9.748;2022-07-10T09:47:47;17.80;65.20
8888;DHT22;4480;52.370;9.748;2022-07-10T09:50:22;17.60;66.70
8888;DHT22;4480;52.370;9.748;2022-07-10T09:52:51;17.40;67.80
8888;DHT22;4480;52.370;9.748;2022-07-10T09:55:21;17.40;68.10
8888;DHT22;4480;52.370;9.748;2022-07-10T09:57:53;17.40;68.20
8888;DHT22;4480;52.370;9.748;2022-07-10T10:00:25;17.50;67.60
8888;DHT22;4480;52.370;9.748;2022-07-10T10:02:59;17.70;67.40
8888;DHT22;4480;52.370;9.748;2022-07-10T10:05:33;18.00;66.10
8888;DHT22;4480;52.370;9.748;2022-07-10T10:08:10;18.60;64.70
8888;DHT22;4480;52.370;9.748;2022-07-10T10:10:43;19.30;60.60
8888;DHT22;4480;52.370;9.748;2022-07-10T10:13:12;19.70;56.00
8888;DHT22;4480;52.370;9.748;2022-07-10T10:15:43;19.80;55.00
8888;DHT22;4480;52.370;9.748;2022-07-10T10:18:12;19.70;53.90
8888;DHT22;4480;52.370;9.748;2022-07-10T10:20:40;19.70;53.40
8888;DHT22;4480;52.370;9.748;2022-07-10T10:23:13;19.70;53.60
8888;DHT22;4480;52.370;9.748;2022-07-10T10:25:41;19.60;53.70
8888;DHT22;4480;52.370;9.748;2022-07-10T10:28:09;19.60;53.80
8888;DHT22;4480;52.370;9.748;2022-07-10T10:30:39;19.50;53.90
8888;DHT22;4480;52.370;9.748;2022-07-10T10:33:44;19.50;53.80
8888;DHT22;4480;52.370;9.748;2022-07-10T10:36:45;19.50;53.70
8888;DHT22;4480;52.370;9.748;2022-07-10T10:39:14;19.70;53.80
8888;DHT22;4480;52.370;9.748;2022-07-10T10:41:46;19.90;53.00
8888;DHT22;4480;52.370;9.748;2022-07-10T10:44:27;20.00;52.60
8888;DHT22;4480;52.370;9.748;2022-07-10T10:47:05;19.90;52.20
8888;DHT22;4480;52.370;9.748;2022-07-10T10:49:51;19.90;51.60
8888;DHT22;4480;52.370;9.748;2022-07-10T10:52:19;20.00;50.30
8888;DHT22;4480;52.370;9.748;2022-07-10T10:55:02;20.10;50.40
8888;DHT22;4480;52.370;9.748;2022-07-10T10:57:43;20.20;50.30
8888;DHT22;4480;52.370;9.748;2022-07-10T11:00:33;20.50;50.10
8888;DHT22;4480;52.370;9.748;2022-07-10T11:03:17;20.80;48.80
8888;DHT22;4480;52.370;9.748;2022-07-10T11:05:47;20.90;47.80
8888;DHT22;4480;52.370;9.748;2022-07-10T11:08:35;20.90;47.80
8888;DHT22;4480;52.370;9.748;2022-07-10T11:14:04;20.80;46.50
8888;DHT22;4480;52.370;9.748;2022-07-10T11:16:31;20.60;47.20
8888;DHT22;4480;52.370;9.748;2022-07-10T11:19:00;20.40;48.10
8888;DHT22;4480;52.370;9.748;2022-07-10T11:21:41;20.30;48.90
8888;DHT22;4480;52.370;9.748;2022-07-10T11:24:21;20.50;49.00
8888;DHT22;4480;52.370;9.748;2022-07-10T11:27:02;20.50;48.30
8888;DHT22;4480;52.370;9.748;2022-07-10T11:29:36;20.70;48.00
8888;DHT22;4480;52.370;9.748;2022-07-10T11:32:05;21.00;48.10
8888;DHT22;4480;52.370;9.748;2022-07-10T11:34:36;21.00;46.20
8888;DHT22;4480;52.370;9.748;2022-07-10T11:37:14;21.10;46.10
8888;DHT22;4480;52.370;9.748;2022-07-10T11:39:41;21.20;45.40
8888;DHT22;4480;52.370;9.748;2022-07-10T11:42:09;21.20;45.40
8888;DHT22;4480;52.370;9.748;2022-07-10T11:44:36;21.40;45.20
8888;DHT22;4480;52.370;9.748;2022-07-10T11:47:04;21.30;45.00
8888;DHT22;4480;52.370;9.748;2022-07-10T11:49:33;21.10;45.20
8888;DHT22;4480;52.370;9.748;2022-07-10T11:52:02;20.80;46.10
8888;DHT22;4480;52.370;9.748;2022-07-10T11:54:32;20.60;46.70
8888;DHT22;4480;52.370;9.748;2022-07-10T11:57:05;20.50;46.90
8888;DHT22;4480;52.370;9.748;2022-07-10T11:59:34;20.60;47.10
8888;DHT22;4480;52.370;9.748;2022-07-10T12:02:01;20.50;47.00
8888;DHT22;4480;52.370;9.748;2022-07-10T12:04:30;20.40;47.60
8888;DHT22;4480;52.370;9.748;2022-07-10T12:06:57;20.40;48.70
8888;DHT22;4480;52.370;9.748;2022-07-10T12:09:25;20.30;49.60
8888;DHT22;4480;52.370;9.748;2022-07-10T12:12:01;20.30;50.30
8888;DHT22;4480;52.370;9.748;2022-07-10T12:14:29;20.50;50.40
8888;DHT22;4480;52.370;9.748;2022-07-10T12:16:57;20.70;50.10
8888;DHT22;4480;52.370;9.748;2022-07-10T12:19:27;20.90;49.90
8888;DHT22;4480;52.370;9.748;2022-07-10T12:21:56;20.80;49.50
8888;DHT22;4480;52.370;9.748;2022-07-10T12:24:24;20.60;49.80
8888;DHT22;4480;52.370;9.748;2022-07-10T12:26:53;20.40;50.40
8888;DHT22;4480;52.370;9.748;2022-07-10T12:29:23;20.10;51.20
8888;DHT22;4480;52.370;9.748;2022-07-10T12:31:53;19.90;51.90
8888;DHT22;4480;52.370;9.748;2022-07-10T12:34:33;19.70;52.40
8888;DHT22;4480;52.370;9.748;2022-07-10T12:37:07;19.90;52.70
8888;DHT22;4480;52.370;9.748;2022-07-10T12:39:36;20.10;52.40
8888;DHT22;4480;52.370;9.748;2022-07-10T12:42:06;20.30;52.20
8888;DHT22;4480;52.370;9.748;2022-07-10T12:44:37;20.40;52.20
8888;DHT22;4480;52.370;9.748;2022-07-10T12:47:06;20.40;52.40
8888;DHT22;4480;52.370;9.748;2022-07-10T12:49:52;20.30;53.20
8888;DHT22;4480;52.370;9.748;2022-07-10T12:52:21;20.20;52.80
8888;DHT22;4480;52.370;9.748;2022-07-10T12:54:48;20.10;53.10
8888;DHT22;4480;52.370;9.748;2022-07-10T12:57:15;20.10;53.70
8888;DHT22;4480;52.370;9.748;2022-07-10T12:59:44;19.90;54.10
8888;DHT22;4480;52.370;9.748;2022-07-10T13:02:16;19.60;54.70
8888;DHT22;4480;52.370;9.748;2022-07-10T13:04:52;19.40;55.40
8888;DHT22;4480;52.370;9.748;2022-07-10T13:07:20;19.20;56.00
8888;DHT22;4480;52.370;9.748;2022-07-10T13:09:55;19.10;56.40
8888;DHT22;4480;52.370;9.748;2022-07-10T13:12:22;19.00;56.80
8888;DHT22;4480;52.370;9.748;2022-07-10T13:14:51;18.90;57.20
8888;DHT22;4480;52.370;9.748;2022-07-10T13:17:18;18.80;57.50
8888;DHT22;4480;52.370;9.748;2022-07-10T13:19:46;18.70;57.90
8888;DHT22;4480;52.370;9.748;2022-07-10T13:22:13;18.70;58.40
8888;DHT22;4480;52.370;9.748;2022-07-10T13:24:40;18.60;59.20
8888;DHT22;4480;52.370;9.748;2022-07-10T13:27:08;18.60;60.30
8888;DHT22;4480;52.370;9.748;2022-07-10T13:29:35;18.70;60.90
8888;DHT22;4480;52.370;9.748;2022-07-10T13:32:05;18.80;60.90
8888;DHT22;4480;52.370;9.748;2022-07-10T13:34:32;18.90;60.90
8888;DHT22;4480;52.370;9.748;2022-07-10T13:37:01;19.10;61.00
8888;DHT22;4480;52.370;9.748;2022-07-10T13:39:29;19.20;61.20
8888;DHT22;4480;52.370;9.748;2022-07-10T13:41:56;19.20;61.80
8888;DHT22;4480;52.370;9.748;2022-07-10T13:44:24;19.10;62.60
8888;DHT22;4480;52.370;9.748;2022-07-10T13:46:51;19.00;63.50
8888;DHT22;4480;52.370;9.748;2022-07-10T13:49:20;19.00;64.30
8888;DHT22;4480;52.370;9.748;2022-07-10T13:51:48;19.00;64.60
8888;DHT22;4480;52.370;9.748;2022-07-10T13:54:15;19.00;64.90
8888;DHT22;4480;52.370;9.748;2022-07-10T13:56:43;19.10;65.10
8888;DHT22;4480;52.370;9.748;2022-07-10T13:59:10;19.20;65.20
8888;DHT22;4480;52.370;9.748;2022-07-10T14:01:37;19.30;65.10
8888;DHT22;4480;52.370;9.748;2022-07-10T14:04:05;19.30;64.50
8888;DHT22;4480;52.370;9.748;2022-07-10T14:06:38;19.10;64.30
8888;DHT22;4480;52.370;9.748;2022-07-10T14:09:05;19.10;64.50
8888;DHT22;4480;52.370;9.748;2022-07-10T14:11:33;19.10;64.70
8888;DHT22;4480;52.370;9.748;2022-07-10T14:14:01;19.10;64.50
8888;DHT22;4480;52.370;9.748;2022-07-10T14:16:28;19.10;64.60
8888;DHT22;4480;52.370;9.748;2022-07-10T14:18:55;18.90;65.00
8888;DHT22;4480;52.370;9.748;2022-07-10T14:21:23;18.80;65.70
8888;DHT22;4480;52.370;9.748;2022-07-10T14:23:54;18.70;66.30
8888;DHT22;4480;52.370;9.748;2022-07-10T14:26:23;18.50;67.70
8888;DHT22;4480;52.370;9.748;2022-07-10T14:28:50;18.10;71.50
8888;DHT22;4480;52.370;9.748;2022-07-10T14:31:21;17.80;78.30
8888;DHT22;4480;52.370;9.748;2022-07-10T14:33:48;17.70;84.40
8888;DHT22;4480;52.370;9.748;2022-07-10T14:36:15;17.70;87.50
8888;DHT22;4480;52.370;9.748;2022-07-10T14:38:42;17.90;87.70
8888;DHT22;4480;52.370;9.748;2022-07-10T14:41:12;18.20;85.50
8888;DHT22;4480;52.370;9.748;2022-07-10T14:43:39;18.30;82.70
8888;DHT22;4480;52.370;9.748;2022-07-10T14:46:06;18.50;80.30
8888;DHT22;4480;52.370;9.748;2022-07-10T14:48:35;18.60;78.10
8888;DHT22;4480;52.370;9.748;2022-07-10T14:51:02;18.90;75.20
8888;DHT22;4480;52.370;9.748;2022-07-10T14:53:30;19.00;71.00
8888;DHT22;4480;52.370;9.748;2022-07-10T14:56:01;19.00;69.20
8888;DHT22;4480;52.370;9.748;2022-07-10T14:58:30;19.20;68.70
8888;DHT22;4480;52.370;9.748;2022-07-10T15:00:57;19.40;66.20
8888;DHT22;4480;52.370;9.748;2022-07-10T15:03:25;19.60;64.80
8888;DHT22;4480;52.370;9.748;2022-07-10T15:05:52;19.70;64.00
8888;DHT22;4480;52.370;9.748;2022-07-10T15:08:22;19.90;63.40
8888;DHT22;4480;52.370;9.748;2022-07-10T15:10:50;20.30;62.00
8888;DHT22;4480;52.370;9.748;2022-07-10T15:13:17;20.30;60.90
8888;DHT22;4480;52.370;9.748;2022-07-10T15:15:46;20.30;60.60
8888;DHT22;4480;52.370;9.748;2022-07-10T15:18:16;20.20;60.70
8888;DHT22;4480;52.370;9.748;2022-07-10T15:20:44;20.00;61.20
8888;DHT22;4480;52.370;9.748;2022-07-10T15:23:11;19.90;61.20
8888;DHT22;4480;52.370;9.748;2022-07-10T15:25:39;19.70;61.70
8888;DHT22;4480;52.370;9.748;2022-07-10T15:28:07;19.50;62.30
8888;DHT22;4480;52.370;9.748;2022-07-10T15:30:34;19.30;63.00
8888;DHT22;4480;52.370;9.748;2022-07-10T15:33:04;19.10;63.70
8888;DHT22;4480;52.370;9.748;2022-07-10T15:35:31;19.00;64.60
8888;DHT22;4480;52.370;9.748;2022-07-10T15:37:59;18.80;65.50
8888;DHT22;4480;52.370;9.748;2022-07-10T15:40:26;18.60;68.50
8888;DHT22;4480;52.370;9.748;2022-07-10T15:42:54;18.30;72.70
8888;DHT22;4480;52.370;9.748;2022-07-10T15:45:22;18.20;76.40
8888;DHT22;4480;52.370;9.748;2022-07-10T15:47:49;18.20;78.10
8888;DHT22;4480;52.370;9.748;2022-07-10T15:50:18;18.30;78.60
8888;DHT22;4480;52.370;9.748;2022-07-10T15:52:46;18.40;78.50
8888;DHT22;4480;52.370;9.748;2022-07-10T15:55:14;18.50;78.40
8888;DHT22;4480;52.370;9.748;2022-07-10T15:57:41;18.50;78.70
8888;DHT22;4480;52.370;9.748;2022-07-10T16:00:12;18.40;79.60
8888;DHT22;4480;52.370;9.748;2022-07-10T16:02:39;18.30;80.90
8888;DHT22;4480;52.370;9.748;2022-07-10T16:05:07;18.30;81.40
8888;DHT22;4480;52.370;9.748;2022-07-10T16:07:36;18.20;81.50
8888;DHT22;4480;52.370;9.748;2022-07-10T16:10:04;18.20;81.80
8888;DHT22;4480;52.370;9.748;2022-07-10T16:12:31;18.30;81.70
8888;DHT22;4480;52.370;9.748;2022-07-10T16:14:58;18.30;81.30
8888;DHT22;4480;52.370;9.748;2022-07-10T16:19:54;18.40;79.90
8888;DHT22;4480;52.370;9.748;2022-07-10T16:22:21;18.50;80.00
8888;DHT22;4480;52.370;9.748;2022-07-10T16:24:50;18.60;79.30